createdAt,value
2019-03-28T00:00:11.023Z,1030.64
2019-03-28T00:01:11.015Z,1030.61
2019-03-28T00:02:11.791Z,1030.60
2019-03-28T00:03:11.018Z,1030.58
2019-03-28T00:04:11.012Z,1030.57
2019-03-28T00:05:10.990Z,1030.59
2019-03-28T00:06:10.965Z,1030.56
2019-03-28T00:07:10.943Z,1030.56
2019-03-28T00:08:12.530Z,1030.60
2019-03-28T00:09:10.913Z,1030.59
2019-03-28T00:10:10.912Z,1030.58
2019-03-28T00:11:10.891Z,1030.56
2019-03-28T00:12:10.931Z,1030.56
2019-03-28T00:13:10.917Z,1030.57
2019-03-28T00:14:10.897Z,1030.60
2019-03-28T00:15:10.850Z,1030.59
2019-03-28T00:16:10.830Z,1030.64
2019-03-28T00:17:10.825Z,1030.59
2019-03-28T00:18:10.825Z,1030.64
2019-03-28T00:19:10.847Z,1030.57
2019-03-28T00:20:10.834Z,1030.57
2019-03-28T00:21:10.792Z,1030.64
2019-03-28T00:22:10.793Z,1030.60
2019-03-28T00:23:10.782Z,1030.66
2019-03-28T00:24:10.756Z,1030.67
2019-03-28T00:25:10.951Z,1030.64
2019-03-28T00:26:10.751Z,1030.70
2019-03-28T00:27:10.725Z,1030.70
2019-03-28T00:28:11.279Z,1030.68
2019-03-28T00:29:10.702Z,1030.65
2019-03-28T00:30:10.722Z,1030.70
2019-03-28T00:31:10.735Z,1030.72
2019-03-28T00:32:10.704Z,1030.70
2019-03-28T00:33:10.670Z,1030.67
2019-03-28T00:34:10.675Z,1030.78
2019-03-28T00:35:10.631Z,1030.75
2019-03-28T00:36:10.633Z,1030.78
2019-03-28T00:37:10.626Z,1030.72
2019-03-28T00:38:10.599Z,1030.79
2019-03-28T00:39:10.578Z,1030.74
2019-03-28T00:40:10.599Z,1030.74
2019-03-28T00:41:10.616Z,1030.73
2019-03-28T00:42:10.546Z,1030.69
2019-03-28T00:43:10.559Z,1030.69
2019-03-28T00:44:10.635Z,1030.74
2019-03-28T00:45:10.519Z,1030.74
2019-03-28T00:46:10.499Z,1030.75
2019-03-28T00:47:11.092Z,1030.77
2019-03-28T00:48:10.490Z,1030.74
2019-03-28T00:49:10.493Z,1030.77
2019-03-28T00:50:10.475Z,1030.73
2019-03-28T00:51:10.453Z,1030.78
2019-03-28T00:52:10.461Z,1030.75
2019-03-28T00:53:10.483Z,1030.78
2019-03-28T00:54:10.470Z,1030.81
2019-03-28T00:55:11.313Z,1030.74
2019-03-28T00:56:10.392Z,1030.76
2019-03-28T00:57:10.394Z,1030.74
2019-03-28T00:58:10.412Z,1030.79
2019-03-28T00:59:10.394Z,1030.80
2019-03-28T01:00:10.510Z,1030.74
2019-03-28T01:01:10.337Z,1030.81
2019-03-28T01:02:10.334Z,1030.74
2019-03-28T01:03:11.175Z,1030.76
2019-03-28T01:04:10.313Z,1030.70
2019-03-28T01:05:10.559Z,1030.69
2019-03-28T01:06:10.286Z,1030.78
2019-03-28T01:07:10.296Z,1030.75
2019-03-28T01:08:11.286Z,1030.72
2019-03-28T01:09:10.298Z,1030.77
2019-03-28T01:10:10.286Z,1030.68
2019-03-28T01:11:10.318Z,1030.76
2019-03-28T01:12:10.214Z,1030.64
2019-03-28T01:13:10.230Z,1030.63
2019-03-28T01:14:10.220Z,1030.68
2019-03-28T01:15:10.197Z,1030.62
2019-03-28T01:16:10.210Z,1030.61
2019-03-28T01:17:10.260Z,1030.59
2019-03-28T01:18:10.156Z,1030.63
2019-03-28T01:19:10.190Z,1030.68
2019-03-28T01:20:10.139Z,1030.61
2019-03-28T01:21:10.148Z,1030.59
2019-03-28T01:22:10.141Z,1030.58
2019-03-28T01:23:10.096Z,1030.62
2019-03-28T01:24:10.095Z,1030.58
2019-03-28T01:25:10.071Z,1030.54
2019-03-28T01:26:10.069Z,1030.57
2019-03-28T01:27:10.195Z,1030.57
2019-03-28T01:28:10.141Z,1030.57
2019-03-28T01:29:10.034Z,1030.59
2019-03-28T01:30:10.099Z,1030.61
2019-03-28T01:31:10.342Z,1030.57
2019-03-28T01:32:10.000Z,1030.52
2019-03-28T01:33:09.979Z,1030.54
2019-03-28T01:34:10.032Z,1030.61
2019-03-28T01:35:09.960Z,1030.50
2019-03-28T01:36:09.989Z,1030.53
2019-03-28T01:37:09.935Z,1030.52
2019-03-28T01:38:09.947Z,1030.48
2019-03-28T01:39:10.226Z,1030.50
2019-03-28T01:40:09.917Z,1030.49
2019-03-28T01:41:09.932Z,1030.47
2019-03-28T01:42:09.894Z,1030.47
2019-03-28T01:43:10.797Z,1030.50
2019-03-28T01:44:09.944Z,1030.46
2019-03-28T01:45:09.897Z,1030.49
2019-03-28T01:46:09.869Z,1030.50
2019-03-28T01:47:09.825Z,1030.50
2019-03-28T01:48:09.842Z,1030.51
2019-03-28T01:49:09.852Z,1030.44
2019-03-28T01:50:09.802Z,1030.44
2019-03-28T01:51:09.847Z,1030.41
2019-03-28T01:52:09.777Z,1030.41
2019-03-28T01:53:09.769Z,1030.42
2019-03-28T01:54:09.874Z,1030.45
2019-03-28T01:55:09.780Z,1030.43
2019-03-28T01:56:09.737Z,1030.46
2019-03-28T01:57:11.274Z,1030.45
2019-03-28T01:58:09.719Z,1030.42
2019-03-28T01:59:09.712Z,1030.41
2019-03-28T02:00:09.801Z,1030.43
2019-03-28T02:01:09.687Z,1030.39
2019-03-28T02:02:09.668Z,1030.41
2019-03-28T02:03:09.682Z,1030.43
2019-03-28T02:04:09.649Z,1030.44
2019-03-28T02:05:09.668Z,1030.45
2019-03-28T02:06:09.667Z,1030.43
2019-03-28T02:07:09.692Z,1030.41
2019-03-28T02:08:09.606Z,1030.35
2019-03-28T02:09:09.613Z,1030.36
2019-03-28T02:10:09.610Z,1030.40
2019-03-28T02:11:09.603Z,1030.40
2019-03-28T02:12:09.558Z,1030.34
2019-03-28T02:13:09.553Z,1030.38
2019-03-28T02:14:09.543Z,1030.36
2019-03-28T02:15:09.584Z,1030.37
2019-03-28T02:16:09.524Z,1030.41
2019-03-28T02:17:09.546Z,1030.37
2019-03-28T02:18:09.524Z,1030.33
2019-03-28T02:19:09.482Z,1030.35
2019-03-28T02:20:10.313Z,1030.41
2019-03-28T02:21:09.719Z,1030.39
2019-03-28T02:22:09.447Z,1030.48
2019-03-28T02:23:10.376Z,1030.48
2019-03-28T02:24:09.486Z,1030.41
2019-03-28T02:25:09.425Z,1030.41
2019-03-28T02:26:09.551Z,1030.38
2019-03-28T02:27:09.395Z,1030.36
2019-03-28T02:28:09.380Z,1030.40
2019-03-28T02:29:09.439Z,1030.40
2019-03-28T02:30:09.353Z,1030.48
2019-03-28T02:31:09.345Z,1030.39
2019-03-28T02:32:09.344Z,1030.46
2019-03-28T02:33:09.343Z,1030.44
2019-03-28T02:34:09.321Z,1030.49
2019-03-28T02:35:09.348Z,1030.47
2019-03-28T02:36:09.319Z,1030.41
2019-03-28T02:37:09.293Z,1030.45
2019-03-28T02:38:09.275Z,1030.50
2019-03-28T02:39:09.267Z,1030.44
2019-03-28T02:40:09.312Z,1030.45
2019-03-28T02:41:09.236Z,1030.47
2019-03-28T02:42:09.232Z,1030.44
2019-03-28T02:43:09.237Z,1030.40
2019-03-28T02:44:09.210Z,1030.47
2019-03-28T02:45:09.204Z,1030.44
2019-03-28T02:46:09.224Z,1030.42
2019-03-28T02:47:09.168Z,1030.43
2019-03-28T02:48:09.211Z,1030.51
2019-03-28T02:49:09.160Z,1030.43
2019-03-28T02:50:09.271Z,1030.48
2019-03-28T02:51:09.163Z,1030.48
2019-03-28T02:52:09.147Z,1030.51
2019-03-28T02:53:09.204Z,1030.49
2019-03-28T02:54:09.132Z,1030.50
2019-03-28T02:55:09.116Z,1030.54
2019-03-28T02:56:09.075Z,1030.44
2019-03-28T02:57:09.064Z,1030.48
2019-03-28T02:58:09.064Z,1030.49
2019-03-28T02:59:09.047Z,1030.47
2019-03-28T03:00:09.066Z,1030.48
2019-03-28T03:01:09.026Z,1030.46
2019-03-28T03:02:09.002Z,1030.48
2019-03-28T03:03:08.990Z,1030.47
2019-03-28T03:04:09.013Z,1030.51
2019-03-28T03:05:09.033Z,1030.50
2019-03-28T03:06:09.070Z,1030.55
2019-03-28T03:07:08.974Z,1030.51
2019-03-28T03:08:08.956Z,1030.52
2019-03-28T03:09:08.974Z,1030.50
2019-03-28T03:10:08.917Z,1030.53
2019-03-28T03:11:09.637Z,1030.50
2019-03-28T03:12:08.943Z,1030.57
2019-03-28T03:13:08.882Z,1030.56
2019-03-28T03:14:08.931Z,1030.57
2019-03-28T03:15:08.902Z,1030.61
2019-03-28T03:16:08.849Z,1030.60
2019-03-28T03:17:08.858Z,1030.61
2019-03-28T03:18:08.861Z,1030.67
2019-03-28T03:19:08.829Z,1030.61
2019-03-28T03:20:08.842Z,1030.59
2019-03-28T03:21:09.884Z,1030.60
2019-03-28T03:22:08.791Z,1030.57
2019-03-28T03:23:08.820Z,1030.64
2019-03-28T03:24:08.776Z,1030.69
2019-03-28T03:25:08.772Z,1030.68
2019-03-28T03:26:08.744Z,1030.69
2019-03-28T03:27:09.323Z,1030.73
2019-03-28T03:28:08.730Z,1030.67
2019-03-28T03:29:08.764Z,1030.70
2019-03-28T03:30:08.794Z,1030.75
2019-03-28T03:31:08.769Z,1030.73
2019-03-28T03:32:08.686Z,1030.73
2019-03-28T03:33:09.448Z,1030.72
2019-03-28T03:34:08.663Z,1030.72
2019-03-28T03:35:08.701Z,1030.74
2019-03-28T03:36:08.639Z,1030.69
2019-03-28T03:37:08.641Z,1030.72
2019-03-28T03:38:08.620Z,1030.72
2019-03-28T03:39:08.601Z,1030.71
2019-03-28T03:40:08.697Z,1030.72
2019-03-28T03:41:08.625Z,1030.69
2019-03-28T03:42:08.585Z,1030.73
2019-03-28T03:43:08.556Z,1030.72
2019-03-28T03:44:08.549Z,1030.68
2019-03-28T03:45:09.337Z,1030.68
2019-03-28T03:46:08.690Z,1030.71
2019-03-28T03:47:08.537Z,1030.69
2019-03-28T03:48:08.484Z,1030.69
2019-03-28T03:49:08.537Z,1030.69
2019-03-28T03:50:08.490Z,1030.67
2019-03-28T03:51:08.453Z,1030.70
2019-03-28T03:52:08.499Z,1030.70
2019-03-28T03:53:08.449Z,1030.77
2019-03-28T03:54:08.442Z,1030.74
2019-03-28T03:55:08.490Z,1030.85
2019-03-28T03:56:08.408Z,1030.80
2019-03-28T03:57:08.394Z,1030.82
2019-03-28T03:58:16.383Z,1030.81
2019-03-28T03:59:09.381Z,1030.85
2019-03-28T04:00:08.366Z,1030.82
2019-03-28T04:01:08.353Z,1030.84
2019-03-28T04:02:08.366Z,1030.84
2019-03-28T04:03:08.381Z,1030.87
2019-03-28T04:04:08.404Z,1030.86
2019-03-28T04:05:08.323Z,1030.91
2019-03-28T04:06:08.294Z,1030.90
2019-03-28T04:07:08.298Z,1030.88
2019-03-28T04:08:08.391Z,1030.85
2019-03-28T04:09:08.309Z,1030.90
2019-03-28T04:10:08.245Z,1030.84
2019-03-28T04:11:08.247Z,1030.89
2019-03-28T04:12:08.260Z,1030.87
2019-03-28T04:13:08.229Z,1030.91
2019-03-28T04:14:08.212Z,1030.90
2019-03-28T04:15:08.250Z,1030.89
2019-03-28T04:16:08.207Z,1030.92
2019-03-28T04:17:08.191Z,1030.96
2019-03-28T04:18:08.180Z,1030.89
2019-03-28T04:19:08.176Z,1030.87
2019-03-28T04:20:08.147Z,1030.88
2019-03-28T04:21:08.162Z,1030.89
2019-03-28T04:22:08.242Z,1030.97
2019-03-28T04:23:08.291Z,1030.92
2019-03-28T04:24:08.098Z,1030.96
2019-03-28T04:25:08.090Z,1030.93
2019-03-28T04:26:08.167Z,1030.92
2019-03-28T04:27:08.068Z,1030.93
2019-03-28T04:28:08.054Z,1030.95
2019-03-28T04:29:08.054Z,1030.93
2019-03-28T04:30:08.048Z,1030.94
2019-03-28T04:31:08.112Z,1030.94
2019-03-28T04:32:08.016Z,1030.96
2019-03-28T04:33:08.066Z,1030.94
2019-03-28T04:34:09.389Z,1030.96
2019-03-28T04:35:07.988Z,1030.93
2019-03-28T04:36:07.988Z,1030.93
2019-03-28T04:37:07.998Z,1030.96
2019-03-28T04:38:08.014Z,1030.99
2019-03-28T04:39:07.972Z,1030.99
2019-03-28T04:40:08.665Z,1030.97
2019-03-28T04:41:07.922Z,1030.96
2019-03-28T04:42:07.967Z,1030.93
2019-03-28T04:43:07.916Z,1031.00
2019-03-28T04:44:07.932Z,1030.96
2019-03-28T04:45:07.860Z,1031.02
2019-03-28T04:46:07.862Z,1031.05
2019-03-28T04:47:07.840Z,1031.11
2019-03-28T04:48:07.826Z,1031.07
2019-03-28T04:49:07.874Z,1031.07
2019-03-28T04:50:07.813Z,1031.11
2019-03-28T04:51:07.805Z,1031.07
2019-03-28T04:52:07.804Z,1031.11
2019-03-28T04:53:07.868Z,1031.12
2019-03-28T04:54:09.871Z,1031.03
2019-03-28T04:55:07.796Z,1031.07
2019-03-28T04:56:07.753Z,1031.03
2019-03-28T04:57:07.758Z,1031.14
2019-03-28T04:58:07.744Z,1031.14
2019-03-28T04:59:07.766Z,1031.10
2019-03-28T05:00:08.375Z,1031.11
2019-03-28T05:01:07.718Z,1031.07
2019-03-28T05:02:07.681Z,1031.11
2019-03-28T05:03:07.677Z,1031.18
2019-03-28T05:04:07.670Z,1031.12
2019-03-28T05:05:07.687Z,1031.11
2019-03-28T05:06:07.770Z,1031.17
2019-03-28T05:07:07.659Z,1031.20
2019-03-28T05:08:08.383Z,1031.16
2019-03-28T05:09:07.737Z,1031.15
2019-03-28T05:10:07.619Z,1031.19
2019-03-28T05:11:07.608Z,1031.16
2019-03-28T05:12:07.608Z,1031.15
2019-03-28T05:13:08.432Z,1031.12
2019-03-28T05:14:07.558Z,1031.14
2019-03-28T05:15:07.539Z,1031.13
2019-03-28T05:16:07.517Z,1031.20
2019-03-28T05:17:14.986Z,1031.19
2019-03-28T05:18:07.519Z,1031.13
2019-03-28T05:19:07.502Z,1031.20
2019-03-28T05:20:07.518Z,1031.20
2019-03-28T05:21:07.508Z,1031.26
2019-03-28T05:22:07.624Z,1031.21
2019-03-28T05:23:07.457Z,1031.23
2019-03-28T05:24:07.486Z,1031.19
2019-03-28T05:25:08.377Z,1031.21
2019-03-28T05:26:07.457Z,1031.21
2019-03-28T05:27:07.518Z,1031.22
2019-03-28T05:28:07.418Z,1031.23
2019-03-28T05:29:07.411Z,1031.24
2019-03-28T05:30:07.402Z,1031.21
2019-03-28T05:31:07.825Z,1031.24
2019-03-28T05:32:07.362Z,1031.21
2019-03-28T05:33:07.419Z,1031.24
2019-03-28T05:34:08.320Z,1031.21
2019-03-28T05:35:07.343Z,1031.23
2019-03-28T05:36:07.313Z,1031.17
2019-03-28T05:37:07.313Z,1031.23
2019-03-28T05:38:07.496Z,1031.22
2019-03-28T05:39:07.294Z,1031.16
2019-03-28T05:40:07.326Z,1031.20
2019-03-28T05:41:07.285Z,1031.24
2019-03-28T05:42:07.251Z,1031.20
2019-03-28T05:43:07.224Z,1031.24
2019-03-28T05:44:07.214Z,1031.25
2019-03-28T05:45:07.201Z,1031.29
2019-03-28T05:46:07.236Z,1031.28
2019-03-28T05:47:07.201Z,1031.26
2019-03-28T05:48:07.279Z,1031.22
2019-03-28T05:49:07.276Z,1031.25
2019-03-28T05:50:07.151Z,1031.25
2019-03-28T05:51:07.180Z,1031.28
2019-03-28T05:52:07.122Z,1031.24
2019-03-28T05:53:07.166Z,1031.32
2019-03-28T05:54:07.129Z,1031.30
2019-03-28T05:55:07.101Z,1031.31
2019-03-28T05:56:07.099Z,1031.26
2019-03-28T05:57:07.076Z,1031.30
2019-03-28T05:58:09.588Z,1031.33
2019-03-28T05:59:11.086Z,1031.27
2019-03-28T06:00:07.051Z,1031.23
2019-03-28T06:01:07.031Z,1031.25
2019-03-28T06:02:07.024Z,1031.24
2019-03-28T06:03:07.052Z,1031.29
2019-03-28T06:04:07.085Z,1031.30
2019-03-28T06:05:07.127Z,1031.37
2019-03-28T06:06:06.967Z,1031.33
2019-03-28T06:07:08.815Z,1031.34
2019-03-28T06:08:06.977Z,1031.38
2019-03-28T06:09:06.955Z,1031.39
2019-03-28T06:10:06.941Z,1031.43
2019-03-28T06:11:06.919Z,1031.42
2019-03-28T06:12:06.933Z,1031.41
2019-03-28T06:13:06.924Z,1031.38
2019-03-28T06:14:06.928Z,1031.39
2019-03-28T06:15:06.909Z,1031.38
2019-03-28T06:16:06.862Z,1031.36
2019-03-28T06:17:06.908Z,1031.35
2019-03-28T06:18:06.830Z,1031.41
2019-03-28T06:19:06.832Z,1031.39
2019-03-28T06:20:06.822Z,1031.40
2019-03-28T06:21:06.875Z,1031.37
2019-03-28T06:22:06.859Z,1031.35
2019-03-28T06:23:06.790Z,1031.39
2019-03-28T06:24:06.851Z,1031.37
2019-03-28T06:25:06.779Z,1031.43
2019-03-28T06:26:06.740Z,1031.37
2019-03-28T06:27:07.494Z,1031.41
2019-03-28T06:28:06.713Z,1031.40
2019-03-28T06:29:08.555Z,1031.40
2019-03-28T06:30:06.716Z,1031.39
2019-03-28T06:31:06.688Z,1031.44
2019-03-28T06:32:06.687Z,1031.44
2019-03-28T06:33:06.701Z,1031.48
2019-03-28T06:34:06.794Z,1031.42
2019-03-28T06:35:06.658Z,1031.40
2019-03-28T06:36:06.646Z,1031.35
2019-03-28T06:37:06.696Z,1031.41
2019-03-28T06:38:06.623Z,1031.38
2019-03-28T06:39:06.647Z,1031.38
2019-03-28T06:40:06.616Z,1031.38
2019-03-28T06:41:06.590Z,1031.42
2019-03-28T06:42:06.764Z,1031.38
2019-03-28T06:43:06.579Z,1031.39
2019-03-28T06:44:06.571Z,1031.35
2019-03-28T06:45:06.541Z,1031.36
2019-03-28T06:46:06.545Z,1031.38
2019-03-28T06:47:06.527Z,1031.41
2019-03-28T06:48:06.558Z,1031.41
2019-03-28T06:49:06.498Z,1031.41
2019-03-28T06:50:06.501Z,1031.41
2019-03-28T06:51:06.483Z,1031.38
2019-03-28T06:52:06.459Z,1031.33
2019-03-28T06:53:06.458Z,1031.42
2019-03-28T06:54:06.477Z,1031.43
2019-03-28T06:55:06.455Z,1031.38
2019-03-28T06:56:06.422Z,1031.44
2019-03-28T06:57:06.399Z,1031.48
2019-03-28T06:58:06.515Z,1031.49
2019-03-28T06:59:06.374Z,1031.40
2019-03-28T07:00:06.389Z,1031.41
2019-03-28T07:01:06.380Z,1031.39
2019-03-28T07:02:06.342Z,1031.37
2019-03-28T07:03:06.331Z,1031.39
2019-03-28T07:04:06.330Z,1031.42
2019-03-28T07:05:06.329Z,1031.43
2019-03-28T07:06:06.329Z,1031.39
2019-03-28T07:07:06.955Z,1031.38
2019-03-28T07:08:06.338Z,1031.50
2019-03-28T07:09:06.270Z,1031.48
2019-03-28T07:10:06.254Z,1031.49
2019-03-28T07:11:06.279Z,1031.48
2019-03-28T07:12:06.257Z,1031.50
2019-03-28T07:13:06.242Z,1031.52
2019-03-28T07:14:06.365Z,1031.55
2019-03-28T07:15:06.217Z,1031.47
2019-03-28T07:16:06.192Z,1031.52
2019-03-28T07:17:06.255Z,1031.55
2019-03-28T07:18:06.184Z,1031.56
2019-03-28T07:19:06.163Z,1031.49
2019-03-28T07:20:08.868Z,1031.57
2019-03-28T07:21:06.141Z,1031.51
2019-03-28T07:22:06.161Z,1031.50
2019-03-28T07:23:06.157Z,1031.51
2019-03-28T07:24:06.105Z,1031.57
2019-03-28T07:25:06.170Z,1031.55
2019-03-28T07:26:06.098Z,1031.51
2019-03-28T07:27:06.084Z,1031.56
2019-03-28T07:28:06.650Z,1031.62
2019-03-28T07:29:06.050Z,1031.53
2019-03-28T07:30:06.092Z,1031.57
2019-03-28T07:31:06.038Z,1031.51
2019-03-28T07:32:06.028Z,1031.51
2019-03-28T07:33:06.019Z,1031.48
2019-03-28T07:34:05.996Z,1031.52
2019-03-28T07:35:05.984Z,1031.48
2019-03-28T07:36:06.012Z,1031.51
2019-03-28T07:37:05.960Z,1031.56
2019-03-28T07:38:06.901Z,1031.49
2019-03-28T07:39:05.950Z,1031.52
2019-03-28T07:40:05.934Z,1031.53
2019-03-28T07:41:06.069Z,1031.48
2019-03-28T07:42:05.938Z,1031.47
2019-03-28T07:43:05.925Z,1031.45
2019-03-28T07:44:05.896Z,1031.40
2019-03-28T07:45:05.931Z,1031.47
2019-03-28T07:46:05.903Z,1031.49
2019-03-28T07:47:05.856Z,1031.51
2019-03-28T07:48:05.848Z,1031.49
2019-03-28T07:49:05.832Z,1031.47
2019-03-28T07:50:05.873Z,1031.50
2019-03-28T07:51:05.863Z,1031.52
2019-03-28T07:52:05.793Z,1031.54
2019-03-28T07:53:05.788Z,1031.48
2019-03-28T07:54:05.787Z,1031.49
2019-03-28T07:55:05.890Z,1031.49
2019-03-28T07:56:05.753Z,1031.49
2019-03-28T07:57:05.902Z,1031.46
2019-03-28T07:58:07.505Z,1031.51
2019-03-28T07:59:05.718Z,1031.51
2019-03-28T08:00:05.754Z,1031.51
2019-03-28T08:01:05.718Z,1031.55
2019-03-28T08:02:05.709Z,1031.56
2019-03-28T08:03:05.682Z,1031.59
2019-03-28T08:04:05.695Z,1031.59
2019-03-28T08:05:05.655Z,1031.66
2019-03-28T08:06:05.651Z,1031.68
2019-03-28T08:07:05.636Z,1031.73
2019-03-28T08:08:05.629Z,1031.71
2019-03-28T08:09:05.617Z,1031.70
2019-03-28T08:10:05.821Z,1031.72
2019-03-28T08:11:05.601Z,1031.76
2019-03-28T08:12:05.577Z,1031.65
2019-03-28T08:13:05.639Z,1031.65
2019-03-28T08:14:05.569Z,1031.66
2019-03-28T08:15:05.538Z,1031.64
2019-03-28T08:16:05.610Z,1031.69
2019-03-28T08:17:05.553Z,1031.69
2019-03-28T08:18:05.522Z,1031.68
2019-03-28T08:19:08.037Z,1031.71
2019-03-28T08:20:05.516Z,1031.72
2019-03-28T08:21:05.593Z,1031.77
2019-03-28T08:22:05.474Z,1031.75
2019-03-28T08:23:05.475Z,1031.77
2019-03-28T08:24:05.524Z,1031.74
2019-03-28T08:25:09.544Z,1031.79
2019-03-28T08:26:06.511Z,1031.78
2019-03-28T08:27:05.464Z,1031.80
2019-03-28T08:28:05.416Z,1031.76
2019-03-28T08:29:05.450Z,1031.74
2019-03-28T08:30:17.526Z,1031.83
2019-03-28T08:31:06.396Z,1031.77
2019-03-28T08:32:05.345Z,1031.79
2019-03-28T08:33:05.381Z,1031.77
2019-03-28T08:34:06.425Z,1031.82
2019-03-28T08:35:05.360Z,1031.82
2019-03-28T08:36:05.318Z,1031.80
2019-03-28T08:37:05.299Z,1031.80
2019-03-28T08:38:05.306Z,1031.81
2019-03-28T08:39:05.287Z,1031.84
2019-03-28T08:40:05.272Z,1031.87
2019-03-28T08:41:07.070Z,1031.82
2019-03-28T08:42:05.289Z,1031.83
2019-03-28T08:43:05.242Z,1031.85
2019-03-28T08:44:07.271Z,1031.87
2019-03-28T08:45:05.225Z,1031.96
2019-03-28T08:46:08.525Z,1031.91
2019-03-28T08:47:06.352Z,1031.96
2019-03-28T08:48:05.193Z,1031.97
2019-03-28T08:49:05.180Z,1031.93
2019-03-28T08:50:05.167Z,1031.97
2019-03-28T08:51:05.198Z,1032.03
2019-03-28T08:52:05.163Z,1031.97
2019-03-28T08:53:05.219Z,1031.99
2019-03-28T08:54:05.126Z,1031.96
2019-03-28T08:55:05.133Z,1032.00
2019-03-28T08:56:05.147Z,1031.95
2019-03-28T08:57:05.088Z,1031.95
2019-03-28T08:58:05.076Z,1031.93
2019-03-28T08:59:05.064Z,1031.91
2019-03-28T09:00:05.090Z,1031.92
2019-03-28T09:01:05.968Z,1031.91
2019-03-28T09:02:05.229Z,1031.94
2019-03-28T09:03:05.026Z,1032.02
2019-03-28T09:04:05.004Z,1032.02
2019-03-28T09:05:05.026Z,1032.03
2019-03-28T09:06:04.987Z,1031.99
2019-03-28T09:07:04.964Z,1032.02
2019-03-28T09:08:04.981Z,1032.03
2019-03-28T09:09:04.944Z,1032.05
2019-03-28T09:10:04.972Z,1032.07
2019-03-28T09:11:04.957Z,1032.06
2019-03-28T09:12:04.902Z,1032.08
2019-03-28T09:13:04.904Z,1032.11
2019-03-28T09:14:04.996Z,1032.13
2019-03-28T09:15:04.886Z,1032.11
2019-03-28T09:16:04.906Z,1032.07
2019-03-28T09:17:04.882Z,1032.05
2019-03-28T09:18:04.862Z,1032.03
2019-03-28T09:19:04.834Z,1032.08
2019-03-28T09:20:04.820Z,1032.06
2019-03-28T09:21:04.821Z,1032.13
2019-03-28T09:22:04.817Z,1032.13
2019-03-28T09:23:04.794Z,1032.13
2019-03-28T09:24:04.788Z,1032.13
2019-03-28T09:25:04.775Z,1032.08
2019-03-28T09:26:04.927Z,1032.12
2019-03-28T09:27:04.773Z,1032.11
2019-03-28T09:28:04.741Z,1032.18
2019-03-28T09:29:04.761Z,1032.18
2019-03-28T09:30:04.899Z,1032.17
2019-03-28T09:31:04.707Z,1032.22
2019-03-28T09:32:04.739Z,1032.19
2019-03-28T09:33:04.799Z,1032.18
2019-03-28T09:34:04.673Z,1032.18
2019-03-28T09:35:04.665Z,1032.15
2019-03-28T09:36:04.715Z,1032.17
2019-03-28T09:37:04.690Z,1032.13
2019-03-28T09:38:04.631Z,1032.12
2019-03-28T09:39:04.652Z,1032.13
2019-03-28T09:40:04.624Z,1032.13
2019-03-28T09:41:04.597Z,1032.14
2019-03-28T09:42:04.578Z,1032.13
2019-03-28T09:43:04.569Z,1032.16
2019-03-28T09:44:04.586Z,1032.13
2019-03-28T09:45:04.558Z,1032.15
2019-03-28T09:46:04.540Z,1032.15
2019-03-28T09:47:04.526Z,1032.13
2019-03-28T09:48:04.520Z,1032.13
2019-03-28T09:49:04.525Z,1032.11
2019-03-28T09:50:04.490Z,1032.10
2019-03-28T09:51:04.486Z,1032.08
2019-03-28T09:52:04.474Z,1032.17
2019-03-28T09:53:04.493Z,1032.08
2019-03-28T09:54:04.466Z,1032.10
2019-03-28T09:55:04.445Z,1032.09
2019-03-28T09:56:04.432Z,1032.11
2019-03-28T09:57:04.586Z,1032.18
2019-03-28T09:58:04.402Z,1032.11
2019-03-28T09:59:04.415Z,1032.06
2019-03-28T10:00:04.452Z,1032.09
2019-03-28T10:01:04.365Z,1032.06
2019-03-28T10:02:04.413Z,1032.08
2019-03-28T10:03:04.353Z,1032.08
2019-03-28T10:04:06.466Z,1032.09
2019-03-28T10:05:04.328Z,1032.14
2019-03-28T10:06:04.316Z,1032.10
2019-03-28T10:07:04.320Z,1032.05
2019-03-28T10:08:04.297Z,1032.09
2019-03-28T10:09:04.292Z,1032.08
2019-03-28T10:10:04.365Z,1032.08
2019-03-28T10:11:04.267Z,1032.10
2019-03-28T10:12:04.263Z,1032.06
2019-03-28T10:13:04.243Z,1032.02
2019-03-28T10:14:04.239Z,1032.05
2019-03-28T10:15:04.247Z,1032.09
2019-03-28T10:16:04.411Z,1032.06
2019-03-28T10:17:04.195Z,1032.02
2019-03-28T10:18:04.214Z,1032.04
2019-03-28T10:19:04.939Z,1032.05
2019-03-28T10:20:05.710Z,1032.10
2019-03-28T10:21:04.148Z,1032.05
2019-03-28T10:22:04.174Z,1032.08
2019-03-28T10:23:04.139Z,1032.01
2019-03-28T10:24:04.110Z,1032.02
2019-03-28T10:25:04.107Z,1031.99
2019-03-28T10:26:04.113Z,1031.96
2019-03-28T10:27:04.091Z,1032.05
2019-03-28T10:28:04.117Z,1032.03
2019-03-28T10:29:04.077Z,1032.05
2019-03-28T10:30:04.050Z,1032.07
2019-03-28T10:31:15.893Z,1032.01
2019-03-28T10:32:05.088Z,1031.99
2019-03-28T10:33:04.091Z,1031.97
2019-03-28T10:34:04.066Z,1031.96
2019-03-28T10:35:06.823Z,1032.01
2019-03-28T10:36:03.996Z,1032.00
2019-03-28T10:37:03.974Z,1032.05
2019-03-28T10:38:03.954Z,1032.00
2019-03-28T10:39:03.953Z,1031.98
2019-03-28T10:40:04.149Z,1032.01
2019-03-28T10:41:03.941Z,1031.98
2019-03-28T10:42:03.921Z,1031.96
2019-03-28T10:43:03.917Z,1031.97
2019-03-28T10:44:03.911Z,1031.89
2019-03-28T10:45:03.890Z,1031.86
2019-03-28T10:46:03.907Z,1031.90
2019-03-28T10:47:05.040Z,1031.93
2019-03-28T10:48:03.849Z,1031.89
2019-03-28T10:49:03.853Z,1031.91
2019-03-28T10:50:04.421Z,1031.86
2019-03-28T10:51:03.855Z,1031.90
2019-03-28T10:52:04.177Z,1031.92
2019-03-28T10:53:03.790Z,1031.93
2019-03-28T10:54:03.780Z,1031.94
2019-03-28T10:55:03.797Z,1031.92
2019-03-28T10:56:03.837Z,1031.92
2019-03-28T10:57:13.507Z,1031.88
2019-03-28T10:58:17.740Z,1031.86
2019-03-28T10:59:04.738Z,1031.86
2019-03-28T11:00:03.721Z,1031.88
2019-03-28T11:01:03.713Z,1031.90
2019-03-28T11:02:03.698Z,1031.89
2019-03-28T11:03:04.791Z,1031.96
2019-03-28T11:04:03.678Z,1031.92
2019-03-28T11:05:03.695Z,1031.94
2019-03-28T11:06:03.663Z,1031.93
2019-03-28T11:07:03.638Z,1031.90
2019-03-28T11:09:12.411Z,1031.98
2019-03-28T11:10:12.377Z,1031.90
2019-03-28T11:11:12.376Z,1031.86
2019-03-28T11:12:12.355Z,1031.87
2019-03-28T11:13:12.344Z,1031.88
2019-03-28T11:14:12.364Z,1031.91
2019-03-28T11:15:12.374Z,1031.90
2019-03-28T11:16:15.071Z,1031.88
2019-03-28T11:17:12.305Z,1031.83
2019-03-28T11:18:12.301Z,1031.81
2019-03-28T11:19:15.577Z,1031.80
2019-03-28T11:20:12.372Z,1031.86
2019-03-28T11:21:12.296Z,1031.87
2019-03-28T11:22:12.283Z,1031.88
2019-03-28T11:23:12.246Z,1031.90
2019-03-28T11:24:12.253Z,1031.96
2019-03-28T11:25:12.215Z,1031.91
2019-03-28T11:26:12.216Z,1031.84
2019-03-28T11:27:12.223Z,1031.83
2019-03-28T11:28:12.183Z,1031.84
2019-03-28T11:29:12.173Z,1031.87
2019-03-28T11:30:12.171Z,1031.83
2019-03-28T11:31:12.148Z,1031.92
2019-03-28T11:32:12.173Z,1031.88
2019-03-28T11:33:12.163Z,1031.82
2019-03-28T11:34:12.120Z,1031.77
2019-03-28T11:35:12.109Z,1031.79
2019-03-28T11:36:12.240Z,1031.76
2019-03-28T11:37:25.471Z,1031.76
2019-03-28T11:38:13.075Z,1031.76
2019-03-28T11:39:12.075Z,1031.80
2019-03-28T11:40:12.698Z,1031.82
2019-03-28T11:41:12.048Z,1031.79
2019-03-28T11:42:12.072Z,1031.86
2019-03-28T11:43:12.024Z,1031.88
2019-03-28T11:44:12.197Z,1031.89
2019-03-28T11:45:12.012Z,1031.93
2019-03-28T11:46:11.986Z,1031.93
2019-03-28T11:47:12.001Z,1031.90
2019-03-28T11:48:11.999Z,1031.91
2019-03-28T11:49:11.963Z,1031.93
2019-03-28T11:50:11.967Z,1031.90
2019-03-28T11:51:11.936Z,1031.89
2019-03-28T11:52:11.936Z,1031.91
2019-03-28T11:53:11.915Z,1031.92
2019-03-28T11:54:11.906Z,1031.91
2019-03-28T11:55:11.899Z,1031.90
2019-03-28T11:56:11.903Z,1031.90
2019-03-28T11:57:11.867Z,1031.88
2019-03-28T11:58:11.904Z,1031.96
2019-03-28T11:59:11.853Z,1031.89
2019-03-28T12:00:11.990Z,1031.83
2019-03-28T12:01:11.826Z,1031.86
2019-03-28T12:02:19.594Z,1031.89
2019-03-28T12:03:12.807Z,1031.87
2019-03-28T12:04:11.792Z,1031.90
2019-03-28T12:05:11.778Z,1031.85
2019-03-28T12:06:11.821Z,1031.86